createdAt,value
2023-05-24T00:00:34.086Z,3.28
2023-05-24T00:03:04.862Z,3.83
2023-05-24T00:05:32.924Z,3.47
2023-05-24T00:08:01.272Z,2.95
2023-05-24T00:10:29.241Z,3.22
2023-05-24T00:12:57.235Z,2.88
2023-05-24T00:15:25.208Z,3.22
2023-05-24T00:17:53.230Z,3.22
2023-05-24T00:20:22.765Z,3.45
2023-05-24T00:22:51.730Z,3.15
2023-05-24T00:25:19.847Z,3.40
2023-05-24T00:27:47.721Z,2.90
2023-05-24T00:30:15.887Z,3.30
2023-05-24T00:32:44.087Z,3.55
2023-05-24T00:35:12.052Z,3.78
2023-05-24T00:37:45.155Z,3.22
2023-05-24T00:40:13.824Z,3.53
2023-05-24T00:42:41.818Z,4.20
2023-05-24T00:45:10.931Z,3.58
2023-05-24T00:47:39.008Z,4.00
2023-05-24T00:50:09.452Z,3.65
2023-05-24T00:55:08.356Z,4.07
2023-05-24T00:57:37.649Z,3.15
2023-05-24T01:00:07.961Z,3.45
2023-05-24T01:05:04.157Z,3.10
2023-05-24T01:07:40.484Z,3.30
2023-05-24T01:10:18.140Z,3.80
2023-05-24T01:12:54.893Z,3.72
2023-05-24T01:15:29.604Z,3.20
2023-05-24T01:18:05.287Z,3.60
2023-05-24T01:20:38.402Z,3.50
2023-05-24T01:23:19.884Z,3.60
2023-05-24T01:26:17.693Z,3.30
2023-05-24T01:28:48.999Z,3.40
2023-05-24T01:31:19.755Z,3.97
2023-05-24T01:33:47.804Z,3.78
2023-05-24T01:36:15.845Z,3.15
2023-05-24T01:38:44.780Z,3.42
2023-05-24T01:41:24.705Z,3.63
2023-05-24T01:44:01.214Z,3.20
2023-05-24T01:46:36.830Z,3.40
2023-05-24T01:49:24.162Z,3.65
2023-05-24T01:51:57.436Z,3.72
2023-05-24T01:54:27.792Z,3.92
2023-05-24T01:59:30.021Z,3.58
2023-05-24T02:01:58.507Z,4.07
2023-05-24T02:04:27.036Z,3.85
2023-05-24T02:06:55.094Z,4.40
2023-05-24T02:09:22.992Z,4.40
2023-05-24T02:11:51.030Z,4.28
2023-05-24T02:14:20.066Z,4.00
2023-05-24T02:16:50.817Z,3.88
2023-05-24T02:19:18.922Z,3.78
2023-05-24T02:21:49.824Z,4.05
2023-05-24T02:24:18.714Z,4.10
2023-05-24T02:26:46.724Z,4.15
2023-05-24T02:29:15.548Z,3.97
2023-05-24T02:31:43.552Z,3.90
2023-05-24T02:34:12.827Z,3.67
2023-05-24T02:36:40.731Z,5.07
2023-05-24T02:39:08.733Z,4.82
2023-05-24T02:41:36.706Z,4.15
2023-05-24T02:44:04.726Z,4.35
2023-05-24T02:46:32.668Z,3.83
2023-05-24T02:49:00.832Z,3.85
2023-05-24T02:51:30.150Z,4.20
2023-05-24T02:53:58.127Z,4.65
2023-05-24T02:56:26.646Z,3.92
2023-05-24T02:58:55.802Z,4.40
2023-05-24T03:01:24.139Z,4.47
2023-05-24T03:03:52.255Z,4.18
2023-05-24T03:06:20.843Z,4.30
2023-05-24T03:08:51.134Z,3.85
2023-05-24T03:13:50.529Z,4.35
2023-05-24T03:16:18.502Z,3.92
2023-05-24T03:18:46.473Z,4.65
2023-05-24T03:21:14.545Z,4.68
2023-05-24T03:23:43.108Z,5.00
2023-05-24T03:26:13.672Z,4.50
2023-05-24T03:28:42.012Z,4.22
2023-05-24T03:31:10.041Z,3.97
2023-05-24T03:33:37.965Z,4.00
2023-05-24T03:36:06.714Z,4.47
2023-05-24T03:38:34.822Z,4.80
2023-05-24T03:41:02.752Z,4.72
2023-05-24T03:43:32.133Z,4.70
2023-05-24T03:46:00.090Z,5.37
2023-05-24T03:48:30.264Z,4.80
2023-05-24T03:50:58.196Z,4.88
2023-05-24T03:53:26.561Z,4.72
2023-05-24T03:55:54.603Z,4.88
2023-05-24T03:58:22.593Z,5.28
2023-05-24T04:00:51.997Z,4.70
2023-05-24T04:03:20.359Z,4.20
2023-05-24T04:05:48.619Z,5.25
2023-05-24T04:08:16.585Z,5.30
2023-05-24T04:10:44.771Z,4.55
2023-05-24T04:13:13.133Z,4.90
2023-05-24T04:15:41.037Z,5.60
2023-05-24T04:18:10.427Z,4.95
2023-05-24T04:20:38.626Z,5.63
2023-05-24T04:23:06.628Z,5.47
2023-05-24T04:25:35.199Z,5.25
2023-05-24T04:28:04.019Z,5.10
2023-05-24T04:30:32.040Z,5.13
2023-05-24T04:33:00.267Z,5.43
2023-05-24T04:35:30.206Z,4.80
2023-05-24T04:37:59.813Z,4.25
2023-05-24T04:40:27.751Z,5.10
2023-05-24T04:42:55.617Z,4.60
2023-05-24T04:45:23.618Z,4.30
2023-05-24T04:47:51.658Z,4.97
2023-05-24T04:50:19.645Z,5.18
2023-05-24T04:52:48.933Z,4.28
2023-05-24T04:55:16.844Z,4.93
2023-05-24T04:57:44.755Z,5.22
2023-05-24T05:00:13.982Z,4.53
2023-05-24T05:02:42.027Z,5.10
2023-05-24T05:05:10.424Z,4.65
2023-05-24T05:07:38.528Z,4.95
2023-05-24T05:10:09.476Z,5.32
2023-05-24T05:12:37.409Z,4.75
2023-05-24T05:15:06.504Z,4.68
2023-05-24T05:17:34.449Z,4.55
2023-05-24T05:20:02.387Z,4.93
2023-05-24T05:22:31.367Z,4.97
2023-05-24T05:24:59.388Z,4.97
2023-05-24T05:27:28.667Z,4.65
2023-05-24T05:29:56.654Z,4.15
2023-05-24T05:32:24.789Z,4.10
2023-05-24T05:34:52.668Z,3.60
2023-05-24T05:37:20.736Z,3.67
2023-05-24T05:39:51.655Z,3.75
2023-05-24T05:42:19.666Z,4.07
2023-05-24T05:44:49.014Z,3.70
2023-05-24T05:47:16.904Z,3.63
2023-05-24T05:49:44.806Z,4.03
2023-05-24T05:52:12.875Z,3.92
2023-05-24T05:54:40.830Z,3.78
2023-05-24T05:57:11.580Z,3.97
2023-05-24T05:59:39.532Z,3.83
2023-05-24T06:02:08.877Z,3.88
2023-05-24T06:04:36.867Z,3.20
2023-05-24T06:07:04.900Z,3.33
2023-05-24T06:09:32.973Z,3.00
2023-05-24T06:12:01.313Z,3.13
2023-05-24T06:14:29.332Z,3.53
2023-05-24T06:16:58.036Z,3.08
2023-05-24T06:19:29.514Z,3.00
2023-05-24T06:21:57.625Z,2.97
2023-05-24T06:24:26.102Z,3.30
2023-05-24T06:26:54.492Z,3.17
2023-05-24T06:29:22.970Z,3.20
2023-05-24T06:31:51.439Z,3.00
2023-05-24T06:34:21.532Z,3.28
2023-05-24T06:36:51.755Z,3.15
2023-05-24T06:39:20.089Z,3.33
2023-05-24T06:41:51.166Z,4.15
2023-05-24T06:44:19.525Z,2.97
2023-05-24T06:46:47.977Z,3.33
2023-05-24T06:49:16.050Z,3.13
2023-05-24T06:51:44.923Z,2.75
2023-05-24T06:54:14.197Z,2.90
2023-05-24T06:56:42.130Z,3.67
2023-05-24T06:59:10.598Z,3.13
2023-05-24T07:01:39.910Z,3.10
2023-05-24T07:04:08.000Z,2.67
2023-05-24T07:06:37.613Z,3.05
2023-05-24T07:09:06.001Z,2.60
2023-05-24T07:11:35.409Z,2.72
2023-05-24T07:14:03.591Z,2.72
2023-05-24T07:16:31.519Z,3.05
2023-05-24T07:19:00.358Z,3.38
2023-05-24T07:21:29.292Z,3.08
2023-05-24T07:23:57.144Z,2.88
2023-05-24T07:26:25.128Z,2.97
2023-05-24T07:28:54.533Z,3.10
2023-05-24T07:31:22.933Z,2.80
2023-05-24T07:33:50.912Z,3.20
2023-05-24T07:36:18.932Z,2.55
2023-05-24T07:38:47.099Z,2.65
2023-05-24T07:41:15.412Z,2.78
2023-05-24T07:43:43.304Z,2.60
2023-05-24T07:46:12.724Z,2.60
2023-05-24T07:48:40.664Z,2.75
2023-05-24T07:51:08.583Z,2.70
2023-05-24T07:53:37.753Z,2.90
2023-05-24T07:56:06.258Z,2.50
2023-05-24T07:58:34.157Z,2.75
2023-05-24T08:01:02.148Z,2.60
2023-05-24T08:03:31.507Z,2.90
2023-05-24T08:05:59.521Z,2.65
2023-05-24T08:08:27.541Z,2.42
2023-05-24T08:10:55.551Z,2.88
2023-05-24T08:13:23.486Z,2.80
2023-05-24T08:15:51.679Z,2.85
2023-05-24T08:18:19.628Z,2.95
2023-05-24T08:20:49.062Z,2.20
2023-05-24T08:23:17.124Z,2.72
2023-05-24T08:25:45.278Z,2.75
2023-05-24T08:28:13.407Z,2.35
2023-05-24T08:30:41.665Z,2.60
2023-05-24T08:33:09.614Z,2.60
2023-05-24T08:35:37.484Z,2.50
2023-05-24T08:38:07.082Z,2.78
2023-05-24T08:40:34.980Z,2.37
2023-05-24T08:43:03.472Z,2.40
2023-05-24T08:45:32.531Z,2.60
2023-05-24T08:48:01.379Z,2.58
2023-05-24T08:50:29.895Z,2.20
2023-05-24T08:52:59.373Z,2.70
2023-05-24T08:55:31.089Z,2.40
2023-05-24T08:58:01.684Z,3.17
2023-05-24T09:00:29.601Z,2.35
2023-05-24T09:03:00.043Z,2.45
2023-05-24T09:07:57.963Z,2.50
2023-05-24T09:10:37.921Z,2.53
2023-05-24T09:13:11.159Z,3.20
2023-05-24T09:15:39.721Z,2.53
2023-05-24T09:18:07.784Z,2.00
2023-05-24T09:20:35.928Z,2.53
2023-05-24T09:23:07.683Z,2.80
2023-05-24T09:25:37.280Z,2.53
2023-05-24T09:28:08.637Z,2.30
2023-05-24T09:30:37.450Z,2.83
2023-05-24T09:33:08.430Z,2.88
2023-05-24T09:35:37.054Z,2.10
2023-05-24T09:38:05.031Z,2.58
2023-05-24T09:40:32.961Z,2.67
2023-05-24T09:43:07.574Z,2.70
2023-05-24T09:45:40.384Z,3.92
2023-05-24T09:48:12.849Z,2.45
2023-05-24T09:50:41.645Z,2.50
2023-05-24T09:53:09.993Z,2.53
2023-05-24T09:55:38.646Z,2.50
2023-05-24T09:58:11.663Z,2.33
2023-05-24T10:00:41.622Z,2.47
2023-05-24T10:05:43.610Z,2.55
2023-05-24T10:08:11.677Z,2.58
2023-05-24T10:10:39.705Z,2.47
2023-05-24T10:13:09.024Z,2.33
2023-05-24T10:15:36.930Z,2.60
2023-05-24T10:18:11.324Z,2.50
2023-05-24T10:20:42.111Z,2.53
2023-05-24T10:23:12.073Z,2.70
2023-05-24T10:25:51.183Z,2.53
2023-05-24T10:28:23.555Z,2.42
2023-05-24T10:31:02.936Z,2.60
2023-05-24T10:33:32.420Z,3.08
2023-05-24T10:36:00.854Z,2.72
2023-05-24T10:38:30.879Z,2.67
2023-05-24T10:40:59.460Z,3.00
2023-05-24T10:43:28.883Z,2.50
2023-05-24T10:45:57.107Z,2.67
2023-05-24T10:48:41.404Z,2.60
2023-05-24T10:51:34.856Z,2.65
2023-05-24T10:54:27.366Z,3.00
2023-05-24T10:56:57.059Z,2.35
2023-05-24T10:59:37.287Z,2.70
2023-05-24T11:02:09.850Z,3.05
2023-05-24T11:04:43.385Z,2.40
2023-05-24T11:07:12.215Z,2.65
2023-05-24T11:09:46.163Z,2.85
2023-05-24T11:12:17.403Z,2.38
2023-05-24T11:14:51.358Z,2.50
2023-05-24T11:17:22.021Z,2.30
2023-05-24T11:19:52.896Z,2.45
2023-05-24T11:22:22.415Z,2.38
2023-05-24T11:24:50.502Z,2.30
2023-05-24T11:27:18.438Z,2.55
2023-05-24T11:29:47.672Z,2.28
2023-05-24T11:32:24.130Z,2.20
2023-05-24T11:34:51.992Z,2.30
2023-05-24T11:37:24.020Z,2.55
2023-05-24T11:39:57.672Z,2.40
2023-05-24T11:42:25.726Z,2.85
2023-05-24T11:44:55.030Z,2.65
2023-05-24T11:47:24.978Z,2.83
2023-05-24T11:49:53.184Z,2.40
2023-05-24T11:52:21.380Z,2.50
2023-05-24T11:54:50.377Z,2.35
2023-05-24T11:57:22.521Z,2.38
2023-05-24T11:59:50.788Z,2.25
2023-05-24T12:02:19.622Z,2.25
2023-05-24T12:04:48.981Z,2.10
2023-05-24T12:07:17.875Z,2.47
2023-05-24T12:09:45.974Z,2.33
2023-05-24T12:12:13.980Z,2.20
2023-05-24T12:14:42.327Z,2.40
2023-05-24T12:17:16.145Z,2.30
2023-05-24T12:19:44.713Z,3.00
2023-05-24T12:22:14.063Z,2.88
2023-05-24T12:24:42.406Z,2.70
2023-05-24T12:27:10.380Z,2.65
2023-05-24T12:29:40.455Z,2.50
2023-05-24T12:32:13.244Z,2.50
2023-05-24T12:34:42.889Z,2.35
2023-05-24T12:37:12.354Z,2.83
2023-05-24T12:39:43.466Z,2.80
2023-05-24T12:42:13.362Z,2.47
2023-05-24T12:44:41.934Z,2.67
2023-05-24T12:47:11.809Z,2.72
2023-05-24T12:49:40.171Z,2.35
2023-05-24T12:52:08.211Z,2.65
2023-05-24T12:54:36.381Z,3.05
2023-05-24T12:57:06.320Z,3.17
2023-05-24T12:59:35.038Z,2.22
2023-05-24T13:02:03.141Z,2.95
2023-05-24T13:04:33.657Z,2.60
2023-05-24T13:07:02.960Z,2.70
2023-05-24T13:09:30.862Z,2.50
2023-05-24T13:11:58.848Z,2.92
2023-05-24T13:14:28.621Z,3.08
2023-05-24T13:16:56.621Z,3.08
2023-05-24T13:19:24.525Z,3.05
2023-05-24T13:21:52.552Z,2.63
2023-05-24T13:24:20.703Z,2.90
2023-05-24T13:26:49.102Z,2.83
2023-05-24T13:29:34.272Z,3.40
2023-05-24T13:32:07.559Z,3.38
2023-05-24T13:34:35.532Z,3.40
2023-05-24T13:37:03.529Z,3.17
2023-05-24T13:39:31.456Z,3.58
2023-05-24T13:42:00.906Z,3.75
2023-05-24T13:44:29.528Z,3.37
2023-05-24T13:46:57.935Z,3.00
2023-05-24T13:49:27.770Z,3.63
2023-05-24T13:51:58.483Z,3.38
2023-05-24T13:54:26.687Z,3.70
2023-05-24T13:56:57.647Z,3.60
2023-05-24T13:59:25.887Z,3.63
2023-05-24T14:01:53.941Z,3.55
2023-05-24T14:04:21.984Z,4.00
2023-05-24T14:06:51.417Z,3.55
2023-05-24T14:09:21.325Z,3.90
2023-05-24T14:11:49.393Z,3.83
2023-05-24T14:16:51.880Z,4.07
2023-05-24T14:19:19.859Z,3.78
2023-05-24T14:21:47.783Z,3.97
2023-05-24T14:24:17.071Z,3.67
2023-05-24T14:26:47.617Z,4.28
2023-05-24T14:29:15.555Z,4.18
2023-05-24T14:31:43.636Z,4.00
2023-05-24T14:34:12.300Z,3.67
2023-05-24T14:36:44.064Z,4.07
2023-05-24T14:39:12.038Z,3.72
2023-05-24T14:41:41.346Z,3.88
2023-05-24T14:44:09.353Z,3.70
2023-05-24T14:46:37.330Z,3.67
2023-05-24T14:49:05.765Z,3.67
2023-05-24T14:51:33.692Z,3.10
2023-05-24T14:54:01.578Z,3.90
2023-05-24T14:56:29.487Z,3.90
2023-05-24T14:58:59.814Z,3.35
2023-05-24T15:01:27.797Z,3.88
2023-05-24T15:03:55.913Z,3.50
2023-05-24T15:06:24.077Z,4.05
2023-05-24T15:08:52.597Z,3.63
2023-05-24T15:11:20.856Z,4.38
2023-05-24T15:13:48.757Z,3.80
2023-05-24T15:16:18.111Z,3.75
2023-05-24T15:18:46.330Z,3.50
2023-05-24T15:21:14.289Z,3.80
2023-05-24T15:23:42.272Z,3.67
2023-05-24T15:26:10.224Z,3.78
2023-05-24T15:28:38.212Z,3.72
2023-05-24T15:31:06.760Z,4.00
2023-05-24T15:33:37.198Z,3.33
2023-05-24T15:38:32.818Z,3.58
2023-05-24T15:41:00.776Z,3.40
2023-05-24T15:43:30.924Z,3.53
2023-05-24T15:45:58.965Z,3.97
2023-05-24T15:48:26.872Z,3.50
2023-05-24T15:51:25.680Z,3.30
2023-05-24T15:53:44.191Z,4.30
2023-05-24T15:56:12.273Z,3.67
2023-05-24T15:58:40.195Z,3.88
2023-05-24T16:01:08.210Z,3.83
2023-05-24T16:03:38.063Z,4.00
2023-05-24T16:06:08.303Z,4.32
2023-05-24T16:08:36.173Z,4.22
2023-05-24T16:11:08.160Z,3.45
2023-05-24T16:13:36.309Z,3.55
2023-05-24T16:16:04.313Z,3.67
2023-05-24T16:18:34.631Z,4.47
2023-05-24T16:23:32.164Z,4.32
2023-05-24T16:26:00.210Z,4.03
2023-05-24T16:28:28.231Z,4.03
2023-05-24T16:30:57.451Z,4.13
2023-05-24T16:33:25.934Z,4.13
2023-05-24T16:35:56.493Z,3.85
2023-05-24T16:38:25.576Z,3.90
2023-05-24T16:40:55.120Z,3.55
2023-05-24T16:43:23.139Z,3.47
2023-05-24T16:45:51.485Z,3.80
2023-05-24T16:48:21.788Z,3.50
2023-05-24T16:50:51.664Z,3.60
2023-05-24T16:53:20.453Z,3.53
2023-05-24T16:55:53.584Z,4.07
2023-05-24T16:58:23.305Z,4.40
2023-05-24T17:00:51.188Z,3.80
2023-05-24T17:03:22.072Z,3.78
2023-05-24T17:05:50.381Z,3.58
2023-05-24T17:08:18.960Z,3.53
2023-05-24T17:10:46.839Z,3.67
2023-05-24T17:13:14.871Z,3.67
2023-05-24T17:15:44.292Z,3.45
2023-05-24T17:18:12.694Z,4.00
2023-05-24T17:20:40.694Z,3.47
2023-05-24T17:23:08.737Z,3.78
2023-05-24T17:25:36.749Z,3.08
2023-05-24T17:28:04.716Z,3.50
2023-05-24T17:30:33.318Z,3.65
2023-05-24T17:33:02.673Z,4.00
2023-05-24T17:35:30.692Z,3.50
2023-05-24T17:37:58.638Z,3.22
2023-05-24T17:40:26.690Z,3.45
2023-05-24T17:42:54.638Z,3.45
2023-05-24T17:45:22.761Z,3.03
2023-05-24T17:47:50.781Z,4.18
2023-05-24T17:50:20.200Z,3.17
2023-05-24T17:52:48.215Z,3.60
2023-05-24T17:55:16.225Z,3.55
2023-05-24T17:57:44.816Z,3.65
2023-05-24T18:00:16.529Z,3.75
2023-05-24T18:02:44.975Z,3.53
2023-05-24T18:05:12.966Z,3.85
2023-05-24T18:07:42.249Z,3.45
2023-05-24T18:10:10.844Z,3.00
2023-05-24T18:12:38.780Z,3.67
2023-05-24T18:15:08.530Z,3.47
2023-05-24T18:17:37.131Z,3.83
2023-05-24T18:20:05.806Z,3.67
2023-05-24T18:22:33.825Z,3.20
2023-05-24T18:25:03.164Z,3.35
2023-05-24T18:27:31.051Z,3.50
2023-05-24T18:29:59.358Z,3.78
2023-05-24T18:32:27.465Z,3.97
2023-05-24T18:34:57.072Z,3.30
2023-05-24T18:37:25.082Z,3.07
2023-05-24T18:39:52.962Z,2.92
2023-05-24T18:42:24.398Z,3.53
2023-05-24T18:44:52.351Z,3.90
2023-05-24T18:47:20.318Z,3.50
2023-05-24T18:49:48.362Z,3.30
2023-05-24T18:52:16.427Z,3.30
2023-05-24T18:54:44.382Z,3.65
2023-05-24T18:57:12.591Z,3.30
2023-05-24T18:59:41.964Z,3.80
2023-05-24T19:02:09.945Z,3.25
2023-05-24T19:04:37.935Z,3.10
2023-05-24T19:07:06.533Z,3.40
2023-05-24T19:09:34.637Z,2.95
2023-05-24T19:12:04.600Z,2.88
2023-05-24T19:14:32.585Z,3.45
2023-05-24T19:17:01.940Z,3.28
2023-05-24T19:19:30.274Z,3.17
2023-05-24T19:21:58.169Z,3.03
2023-05-24T19:24:26.159Z,3.42
2023-05-24T19:26:54.437Z,3.58
2023-05-24T19:29:22.333Z,3.40
2023-05-24T19:31:50.971Z,3.28
2023-05-24T19:34:20.973Z,3.22
2023-05-24T19:36:48.998Z,3.50
2023-05-24T19:39:17.014Z,3.38
2023-05-24T19:41:44.972Z,4.15
2023-05-24T19:44:12.853Z,3.20
2023-05-24T19:46:40.782Z,3.25
2023-05-24T19:49:08.787Z,3.47
2023-05-24T19:51:38.267Z,3.38
2023-05-24T19:54:06.179Z,3.50
2023-05-24T19:56:34.174Z,3.67
2023-05-24T19:59:02.168Z,3.45
2023-05-24T20:01:30.141Z,3.20
2023-05-24T20:03:58.376Z,4.30
2023-05-24T20:06:26.507Z,3.47
2023-05-24T20:08:58.838Z,3.83
2023-05-24T20:11:26.967Z,3.63
2023-05-24T20:13:55.989Z,2.90
2023-05-24T20:16:24.356Z,3.20
2023-05-24T20:18:52.416Z,3.83
2023-05-24T20:21:20.518Z,3.35
2023-05-24T20:23:50.663Z,3.70
2023-05-24T20:26:20.073Z,3.67
2023-05-24T20:28:50.110Z,3.53
2023-05-24T20:31:18.339Z,3.95
2023-05-24T20:33:46.281Z,3.35
2023-05-24T20:36:15.610Z,3.30
2023-05-24T20:38:43.538Z,3.40
2023-05-24T20:41:11.509Z,3.50
2023-05-24T20:43:40.876Z,3.50
2023-05-24T20:46:08.882Z,3.35
2023-05-24T20:48:36.955Z,3.42
2023-05-24T20:51:05.089Z,3.60
2023-05-24T20:53:33.082Z,3.90
2023-05-24T20:56:01.983Z,3.40
2023-05-24T20:58:31.442Z,3.75
2023-05-24T21:01:01.028Z,3.67
2023-05-24T21:03:29.094Z,3.50
2023-05-24T21:05:57.250Z,3.50
2023-05-24T21:08:25.192Z,3.45
2023-05-24T21:10:55.584Z,3.72
2023-05-24T21:13:25.493Z,3.38
2023-05-24T21:15:53.493Z,3.70
2023-05-24T21:18:22.850Z,3.78
2023-05-24T21:20:50.797Z,3.60
2023-05-24T21:23:18.836Z,4.10
2023-05-24T21:25:46.842Z,3.20
2023-05-24T21:28:15.108Z,3.90
2023-05-24T21:30:43.231Z,3.80
2023-05-24T21:33:11.333Z,3.83
2023-05-24T21:35:40.824Z,3.80
2023-05-24T21:38:08.775Z,3.63
2023-05-24T21:40:36.677Z,4.10
2023-05-24T21:43:05.222Z,3.78
2023-05-24T21:45:33.220Z,3.72
2023-05-24T21:48:01.504Z,3.50
2023-05-24T21:50:29.472Z,3.90
2023-05-24T21:52:58.820Z,4.03
2023-05-24T21:55:26.824Z,4.40
2023-05-24T21:57:54.654Z,3.50
2023-05-24T22:00:23.277Z,3.95
2023-05-24T22:02:51.305Z,4.25
2023-05-24T22:05:20.459Z,3.85
2023-05-24T22:07:48.412Z,4.32
2023-05-24T22:10:17.974Z,4.25
2023-05-24T22:12:45.828Z,4.20
2023-05-24T22:15:13.711Z,4.20
2023-05-24T22:17:42.124Z,3.85
2023-05-24T22:20:11.598Z,4.00
2023-05-24T22:22:48.836Z,4.55
2023-05-24T22:25:19.631Z,4.20
2023-05-24T22:27:48.515Z,4.07
2023-05-24T22:30:16.858Z,4.45
2023-05-24T22:32:44.969Z,4.07
2023-05-24T22:35:13.158Z,4.05
2023-05-24T22:37:41.302Z,4.70
2023-05-24T22:40:10.091Z,5.00
2023-05-24T22:42:39.310Z,4.70
2023-05-24T22:45:08.470Z,4.03
2023-05-24T22:47:36.534Z,3.90
2023-05-24T22:50:04.804Z,4.45
2023-05-24T22:52:34.293Z,4.47
2023-05-24T22:55:02.282Z,4.05
2023-05-24T22:57:30.196Z,4.72
2023-05-24T22:59:59.449Z,4.75
2023-05-24T23:02:29.089Z,4.30
2023-05-24T23:04:57.256Z,4.35
2023-05-24T23:07:25.247Z,4.63
2023-05-24T23:09:53.458Z,4.45
2023-05-24T23:12:21.736Z,4.05
2023-05-24T23:14:49.825Z,4.10
2023-05-24T23:17:20.597Z,4.10
2023-05-24T23:19:50.490Z,4.20
2023-05-24T23:22:19.388Z,5.20
2023-05-24T23:24:48.251Z,4.05
2023-05-24T23:27:16.404Z,3.72
2023-05-24T23:29:44.279Z,3.92
2023-05-24T23:32:12.728Z,3.53
2023-05-24T23:34:42.117Z,3.50
2023-05-24T23:37:09.972Z,3.53
2023-05-24T23:39:37.837Z,4.03
2023-05-24T23:42:06.720Z,3.67
2023-05-24T23:44:34.665Z,4.45
2023-05-24T23:47:03.158Z,3.70
2023-05-24T23:49:31.680Z,3.40
2023-05-24T23:52:00.983Z,3.40
2023-05-24T23:54:28.824Z,3.60
2023-05-24T23:56:56.724Z,3.65
2023-05-24T23:59:24.583Z,3.50
